Terminal Aerodrome Forecast
Issued by NWS

Home | Current Version | Previous Version | Text Only | Print | Product List | Glossary On
Versions: 1 2 3 4 5 6 7 8 9 10 11 12 13 14 15 16 17 18 19 20 21 22 23 24 25 26 27 28 29 30 31 32 33 34 35
000
FTUS45 KGJT 021125
TAFRIL
TAF
KRIL 021125Z 0212/0312 VRB04KT P6SM FEW110 FEW200
     FM022000 26010G17KT P6SM SCT110 BKN200
     FM030200 16008KT P6SM FEW110 SCT200
     FM030600 VRB03KT P6SM FEW110=

USA.gov is the U.S. government's official web portal to all federal, state and local government web resources and services.